sensor_id;sensor_type;location;lat;lon;timestamp;pressure;altitude;pressure_sealevel;temperature;humidity
12781;BME280;6454;43.304;24.344;2023-03-03T00:01:29;100699.53;;;6.13;89.82
12781;BME280;6454;43.304;24.344;2023-03-03T00:03:58;100699.03;;;6.16;89.52
12781;BME280;6454;43.304;24.344;2023-03-03T00:06:25;100691.78;;;6.17;88.75
12781;BME280;6454;43.304;24.344;2023-03-03T00:08:52;100688.84;;;6.18;88.98
12781;BME280;6454;43.304;24.344;2023-03-03T00:11:19;100690.78;;;6.06;89.76
12781;BME280;6454;43.304;24.344;2023-03-03T00:13:47;100689.50;;;6.09;89.92
12781;BME280;6454;43.304;24.344;2023-03-03T00:16:24;100683.38;;;6.13;90.13
12781;BME280;6454;43.304;24.344;2023-03-03T00:18:51;100677.59;;;6.05;90.50
12781;BME280;6454;43.304;24.344;2023-03-03T00:21:25;100682.63;;;6.01;91.19
12781;BME280;6454;43.304;24.344;2023-03-03T00:23:54;100670.06;;;6.07;91.31
12781;BME280;6454;43.304;24.344;2023-03-03T00:26:28;100670.31;;;6.05;90.86
12781;BME280;6454;43.304;24.344;2023-03-03T00:28:58;100637.56;;;5.80;91.50
12781;BME280;6454;43.304;24.344;2023-03-03T00:31:31;100668.47;;;6.06;91.52
12781;BME280;6454;43.304;24.344;2023-03-03T00:34:10;100665.81;;;6.11;91.54
12781;BME280;6454;43.304;24.344;2023-03-03T00:36:46;100657.50;;;6.12;91.16
12781;BME280;6454;43.304;24.344;2023-03-03T00:39:21;100654.00;;;6.12;90.93
12781;BME280;6454;43.304;24.344;2023-03-03T00:41:50;100654.00;;;6.12;89.92
12781;BME280;6454;43.304;24.344;2023-03-03T00:44:37;100635.16;;;5.95;89.86
12781;BME280;6454;43.304;24.344;2023-03-03T00:47:17;100651.97;;;6.02;90.65
12781;BME280;6454;43.304;24.344;2023-03-03T00:49:49;100653.59;;;6.03;91.34
12781;BME280;6454;43.304;24.344;2023-03-03T00:52:18;100650.75;;;6.10;90.83
12781;BME280;6454;43.304;24.344;2023-03-03T00:54:45;100646.41;;;6.09;90.75
12781;BME280;6454;43.304;24.344;2023-03-03T00:57:12;100642.97;;;6.13;91.16
12781;BME280;6454;43.304;24.344;2023-03-03T00:59:39;100642.47;;;6.16;89.97
12781;BME280;6454;43.304;24.344;2023-03-03T01:02:06;100641.28;;;6.07;90.19
12781;BME280;6454;43.304;24.344;2023-03-03T01:04:33;100640.69;;;6.05;91.15
12781;BME280;6454;43.304;24.344;2023-03-03T01:07:00;100635.81;;;6.02;91.57
12781;BME280;6454;43.304;24.344;2023-03-03T01:09:28;100641.00;;;6.09;90.77
12781;BME280;6454;43.304;24.344;2023-03-03T01:11:55;100639.47;;;6.13;90.15
12781;BME280;6454;43.304;24.344;2023-03-03T01:14:22;100635.88;;;6.07;90.24
12781;BME280;6454;43.304;24.344;2023-03-03T01:16:49;100631.47;;;6.01;90.68
12781;BME280;6454;43.304;24.344;2023-03-03T01:19:16;100633.94;;;6.03;90.36
12781;BME280;6454;43.304;24.344;2023-03-03T01:21:42;100575.59;;;5.63;90.48
12781;BME280;6454;43.304;24.344;2023-03-03T01:24:09;100637.84;;;5.95;91.18
12781;BME280;6454;43.304;24.344;2023-03-03T01:26:37;100632.06;;;6.03;91.08
12781;BME280;6454;43.304;24.344;2023-03-03T01:29:04;100622.97;;;6.09;90.43
12781;BME280;6454;43.304;24.344;2023-03-03T01:31:31;100621.44;;;5.97;90.91
12781;BME280;6454;43.304;24.344;2023-03-03T01:33:58;100625.50;;;5.99;91.40
12781;BME280;6454;43.304;24.344;2023-03-03T01:36:26;100614.50;;;6.01;90.82
12781;BME280;6454;43.304;24.344;2023-03-03T01:38:53;100618.16;;;5.95;90.74
12781;BME280;6454;43.304;24.344;2023-03-03T01:41:20;100566.41;;;5.59;91.10
12781;BME280;6454;43.304;24.344;2023-03-03T01:43:49;100578.47;;;5.73;91.36
12781;BME280;6454;43.304;24.344;2023-03-03T01:46:30;100607.06;;;5.91;90.67
12781;BME280;6454;43.304;24.344;2023-03-03T01:49:02;100604.06;;;5.88;90.67
12781;BME280;6454;43.304;24.344;2023-03-03T01:51:32;100571.56;;;5.61;91.22
12781;BME280;6454;43.304;24.344;2023-03-03T01:54:02;100604.28;;;5.86;91.29
12781;BME280;6454;43.304;24.344;2023-03-03T01:56:29;100606.88;;;5.81;91.75
12781;BME280;6454;43.304;24.344;2023-03-03T01:58:59;100608.69;;;5.75;92.35
12781;BME280;6454;43.304;24.344;2023-03-03T02:01:28;100597.91;;;5.75;92.82
12781;BME280;6454;43.304;24.344;2023-03-03T02:03:57;100601.16;;;5.77;92.94
12781;BME280;6454;43.304;24.344;2023-03-03T02:06:27;100599.03;;;5.79;93.47
12781;BME280;6454;43.304;24.344;2023-03-03T02:08:59;100595.53;;;5.79;93.05
12781;BME280;6454;43.304;24.344;2023-03-03T02:11:29;100599.22;;;5.73;93.61
12781;BME280;6454;43.304;24.344;2023-03-03T02:13:58;100597.91;;;5.75;93.86
12781;BME280;6454;43.304;24.344;2023-03-03T02:16:25;100555.06;;;5.41;93.14
12781;BME280;6454;43.304;24.344;2023-03-03T02:18:52;100603.22;;;5.70;93.31
12781;BME280;6454;43.304;24.344;2023-03-03T02:21:20;100601.56;;;5.69;93.83
12781;BME280;6454;43.304;24.344;2023-03-03T02:23:52;100595.22;;;5.75;93.82
12781;BME280;6454;43.304;24.344;2023-03-03T02:26:27;100596.59;;;5.78;93.30
12781;BME280;6454;43.304;24.344;2023-03-03T02:28:54;100587.94;;;5.76;93.36
12781;BME280;6454;43.304;24.344;2023-03-03T02:31:24;100599.44;;;5.71;93.40
12781;BME280;6454;43.304;24.344;2023-03-03T02:33:52;100596.34;;;5.79;93.36
12781;BME280;6454;43.304;24.344;2023-03-03T02:36:21;100602.41;;;5.87;92.70
12781;BME280;6454;43.304;24.344;2023-03-03T02:38:52;100607.56;;;5.88;92.84
12781;BME280;6454;43.304;24.344;2023-03-03T02:41:28;100605.00;;;5.81;93.15
12781;BME280;6454;43.304;24.344;2023-03-03T02:43:59;100601.59;;;5.86;92.85
12781;BME280;6454;43.304;24.344;2023-03-03T02:46:26;100604.63;;;5.90;92.19
12781;BME280;6454;43.304;24.344;2023-03-03T02:48:53;100594.22;;;5.81;92.51
12781;BME280;6454;43.304;24.344;2023-03-03T02:51:20;100608.06;;;5.85;92.74
12781;BME280;6454;43.304;24.344;2023-03-03T02:53:46;100607.66;;;5.93;92.18
12781;BME280;6454;43.304;24.344;2023-03-03T02:56:14;100607.66;;;5.93;91.82
12781;BME280;6454;43.304;24.344;2023-03-03T02:58:42;100597.28;;;5.85;92.69
12781;BME280;6454;43.304;24.344;2023-03-03T03:01:09;100603.56;;;5.91;92.18
12781;BME280;6454;43.304;24.344;2023-03-03T03:03:36;100611.22;;;5.99;91.38
12781;BME280;6454;43.304;24.344;2023-03-03T03:06:03;100606.00;;;5.92;91.72
12781;BME280;6454;43.304;24.344;2023-03-03T03:08:30;100602.41;;;5.87;92.50
12781;BME280;6454;43.304;24.344;2023-03-03T03:10:56;100593.59;;;5.91;93.09
12781;BME280;6454;43.304;24.344;2023-03-03T03:13:24;100592.72;;;6.02;91.79
12781;BME280;6454;43.304;24.344;2023-03-03T03:15:52;100596.78;;;6.05;91.04
12781;BME280;6454;43.304;24.344;2023-03-03T03:18:19;100532.06;;;5.50;91.31
12781;BME280;6454;43.304;24.344;2023-03-03T03:20:46;100597.13;;;6.08;91.29
12781;BME280;6454;43.304;24.344;2023-03-03T03:23:13;100540.63;;;5.63;91.16
12781;BME280;6454;43.304;24.344;2023-03-03T03:25:40;100597.63;;;6.05;91.49
12781;BME280;6454;43.304;24.344;2023-03-03T03:28:10;100585.19;;;6.04;91.87
12781;BME280;6454;43.304;24.344;2023-03-03T03:30:37;100583.06;;;6.06;91.36
12781;BME280;6454;43.304;24.344;2023-03-03T03:33:06;100585.19;;;6.04;91.08
12781;BME280;6454;43.304;24.344;2023-03-03T03:35:35;100579.31;;;6.07;90.95
12781;BME280;6454;43.304;24.344;2023-03-03T03:38:02;100580.16;;;6.08;90.97
12781;BME280;6454;43.304;24.344;2023-03-03T03:40:29;100573.44;;;6.10;91.24
12781;BME280;6454;43.304;24.344;2023-03-03T03:42:56;100570.53;;;5.95;91.29
12781;BME280;6454;43.304;24.344;2023-03-03T03:45:23;100541.75;;;5.84;91.70
12781;BME280;6454;43.304;24.344;2023-03-03T03:47:50;100561.53;;;6.06;91.99
12781;BME280;6454;43.304;24.344;2023-03-03T03:50:18;100558.91;;;6.11;91.38
12781;BME280;6454;43.304;24.344;2023-03-03T03:52:45;100568.81;;;6.06;91.36
12781;BME280;6454;43.304;24.344;2023-03-03T03:55:11;100559.09;;;6.05;91.79
12781;BME280;6454;43.304;24.344;2023-03-03T03:57:39;100553.38;;;6.01;92.13
12781;BME280;6454;43.304;24.344;2023-03-03T04:00:07;100554.59;;;6.10;91.24
12781;BME280;6454;43.304;24.344;2023-03-03T04:02:35;100552.47;;;6.12;91.00
12781;BME280;6454;43.304;24.344;2023-03-03T04:05:02;100553.53;;;6.11;91.06
12781;BME280;6454;43.304;24.344;2023-03-03T04:07:30;100548.13;;;6.11;91.07
12781;BME280;6454;43.304;24.344;2023-03-03T04:09:57;100552.47;;;6.12;90.61
12781;BME280;6454;43.304;24.344;2023-03-03T04:12:24;100548.97;;;6.12;90.92
12781;BME280;6454;43.304;24.344;2023-03-03T04:14:51;100540.25;;;6.05;91.78
12781;BME280;6454;43.304;24.344;2023-03-03T04:17:18;100539.97;;;6.06;92.23
12781;BME280;6454;43.304;24.344;2023-03-03T04:19:45;100537.13;;;6.13;91.44
12781;BME280;6454;43.304;24.344;2023-03-03T04:22:12;100537.34;;;6.11;91.47
12781;BME280;6454;43.304;24.344;2023-03-03T04:24:40;100492.59;;;5.72;91.80
12781;BME280;6454;43.304;24.344;2023-03-03T04:27:07;100537.22;;;6.01;92.34
12781;BME280;6454;43.304;24.344;2023-03-03T04:29:35;100539.19;;;6.06;92.29
12781;BME280;6454;43.304;24.344;2023-03-03T04:32:01;100545.97;;;6.08;91.84
12781;BME280;6454;43.304;24.344;2023-03-03T04:34:28;100550.69;;;6.01;92.08
12781;BME280;6454;43.304;24.344;2023-03-03T04:36:55;100544.25;;;6.02;92.67
12781;BME280;6454;43.304;24.344;2023-03-03T04:39:22;100544.81;;;6.04;92.26
12781;BME280;6454;43.304;24.344;2023-03-03T04:41:50;100547.00;;;6.07;91.79
12781;BME280;6454;43.304;24.344;2023-03-03T04:44:17;100545.72;;;5.93;92.47
12781;BME280;6454;43.304;24.344;2023-03-03T04:46:44;100547.91;;;5.96;93.00
12781;BME280;6454;43.304;24.344;2023-03-03T04:49:11;100546.75;;;6.09;90.83
12781;BME280;6454;43.304;24.344;2023-03-03T04:51:37;100550.75;;;6.06;89.85
12781;BME280;6454;43.304;24.344;2023-03-03T04:54:04;100554.94;;;5.97;90.62
12781;BME280;6454;43.304;24.344;2023-03-03T04:56:31;100483.06;;;5.48;91.60
12781;BME280;6454;43.304;24.344;2023-03-03T04:59:00;100548.34;;;5.88;92.23
12781;BME280;6454;43.304;24.344;2023-03-03T05:01:26;100558.03;;;5.89;91.35
12781;BME280;6454;43.304;24.344;2023-03-03T05:03:53;100545.97;;;5.92;90.63
12781;BME280;6454;43.304;24.344;2023-03-03T05:06:20;100551.81;;;5.89;91.08
12781;BME280;6454;43.304;24.344;2023-03-03T05:08:47;100556.91;;;5.85;91.21
12781;BME280;6454;43.304;24.344;2023-03-03T05:11:14;100551.25;;;5.87;91.02
12781;BME280;6454;43.304;24.344;2023-03-03T05:13:40;100555.22;;;5.84;90.78
12781;BME280;6454;43.304;24.344;2023-03-03T05:16:08;100560.72;;;5.89;90.57
12781;BME280;6454;43.304;24.344;2023-03-03T05:18:35;100562.84;;;5.87;90.66
12781;BME280;6454;43.304;24.344;2023-03-03T05:21:03;100565.63;;;5.92;90.69
12781;BME280;6454;43.304;24.344;2023-03-03T05:23:29;100563.31;;;5.84;91.47
12781;BME280;6454;43.304;24.344;2023-03-03T05:25:56;100555.97;;;5.79;92.09
12781;BME280;6454;43.304;24.344;2023-03-03T05:28:23;100558.91;;;5.78;92.70
12781;BME280;6454;43.304;24.344;2023-03-03T05:30:50;100558.84;;;5.73;93.04
12781;BME280;6454;43.304;24.344;2023-03-03T05:33:18;100563.22;;;5.79;92.55
12781;BME280;6454;43.304;24.344;2023-03-03T05:35:45;100557.84;;;5.79;93.04
12781;BME280;6454;43.304;24.344;2023-03-03T05:38:12;100555.63;;;5.76;93.03
12781;BME280;6454;43.304;24.344;2023-03-03T05:40:39;100555.41;;;5.77;93.29
12781;BME280;6454;43.304;24.344;2023-03-03T05:43:05;100564.38;;;5.83;92.39
12781;BME280;6454;43.304;24.344;2023-03-03T05:45:32;100560.41;;;5.86;92.19
12781;BME280;6454;43.304;24.344;2023-03-03T05:47:59;100565.16;;;5.83;92.51
12781;BME280;6454;43.304;24.344;2023-03-03T05:50:29;100569.53;;;5.84;93.03
12781;BME280;6454;43.304;24.344;2023-03-03T05:52:55;100567.28;;;5.93;92.59
12781;BME280;6454;43.304;24.344;2023-03-03T05:55:22;100578.34;;;5.97;92.02
12781;BME280;6454;43.304;24.344;2023-03-03T05:57:49;100577.44;;;5.91;92.35
12781;BME280;6454;43.304;24.344;2023-03-03T06:00:17;100572.81;;;5.87;92.73
12781;BME280;6454;43.304;24.344;2023-03-03T06:02:44;100571.50;;;5.89;93.61
12781;BME280;6454;43.304;24.344;2023-03-03T06:05:11;100568.88;;;5.94;93.21
12781;BME280;6454;43.304;24.344;2023-03-03T06:07:39;100579.44;;;5.96;93.37
12781;BME280;6454;43.304;24.344;2023-03-03T06:10:08;100571.84;;;5.93;93.28
12781;BME280;6454;43.304;24.344;2023-03-03T06:12:35;100563.34;;;6.01;93.35
12781;BME280;6454;43.304;24.344;2023-03-03T06:15:04;100564.13;;;6.01;91.92
12781;BME280;6454;43.304;24.344;2023-03-03T06:17:31;100567.28;;;5.93;92.29
12781;BME280;6454;43.304;24.344;2023-03-03T06:19:58;100565.13;;;5.95;92.93
12781;BME280;6454;43.304;24.344;2023-03-03T06:22:24;100573.28;;;6.00;92.43
12781;BME280;6454;43.304;24.344;2023-03-03T06:24:53;100572.56;;;6.05;92.40
12781;BME280;6454;43.304;24.344;2023-03-03T06:27:19;100579.72;;;5.99;92.76
12781;BME280;6454;43.304;24.344;2023-03-03T06:29:47;100576.22;;;5.99;92.45
12781;BME280;6454;43.304;24.344;2023-03-03T06:32:13;100576.72;;;5.96;92.57
12781;BME280;6454;43.304;24.344;2023-03-03T06:34:40;100579.00;;;5.87;93.71
12781;BME280;6454;43.304;24.344;2023-03-03T06:37:07;100582.53;;;5.88;94.24
12781;BME280;6454;43.304;24.344;2023-03-03T06:39:34;100580.47;;;5.95;94.05
12781;BME280;6454;43.304;24.344;2023-03-03T06:42:02;100573.03;;;6.02;93.68
12781;BME280;6454;43.304;24.344;2023-03-03T06:44:29;100578.59;;;5.95;93.81
12781;BME280;6454;43.304;24.344;2023-03-03T06:46:56;100575.25;;;6.05;93.71
12781;BME280;6454;43.304;24.344;2023-03-03T06:49:23;100576.81;;;6.01;93.91
12781;BME280;6454;43.304;24.344;2023-03-03T06:51:50;100571.56;;;5.94;94.25
12781;BME280;6454;43.304;24.344;2023-03-03T06:54:18;100583.50;;;5.98;94.69
12781;BME280;6454;43.304;24.344;2023-03-03T06:56:46;100590.41;;;5.94;94.71
12781;BME280;6454;43.304;24.344;2023-03-03T06:59:16;100571.66;;;5.99;94.89
12781;BME280;6454;43.304;24.344;2023-03-03T07:01:44;100554.38;;;5.95;94.67
12781;BME280;6454;43.304;24.344;2023-03-03T07:04:21;100562.34;;;6.07;94.22
12781;BME280;6454;43.304;24.344;2023-03-03T07:06:50;100570.69;;;6.05;94.63
12781;BME280;6454;43.304;24.344;2023-03-03T07:09:20;100568.56;;;6.07;95.18
12781;BME280;6454;43.304;24.344;2023-03-03T07:11:49;100571.06;;;6.14;94.92
12781;BME280;6454;43.304;24.344;2023-03-03T07:14:19;100563.94;;;6.24;93.90
12781;BME280;6454;43.304;24.344;2023-03-03T07:16:46;100569.81;;;6.21;93.93
12781;BME280;6454;43.304;24.344;2023-03-03T07:19:24;100561.53;;;6.23;94.14
12781;BME280;6454;43.304;24.344;2023-03-03T07:21:51;100557.88;;;6.34;93.78
12781;BME280;6454;43.304;24.344;2023-03-03T07:24:25;100560.66;;;6.39;93.45
12781;BME280;6454;43.304;24.344;2023-03-03T07:26:55;100548.97;;;6.33;93.20
12781;BME280;6454;43.304;24.344;2023-03-03T07:29:27;100553.81;;;6.31;93.51
12781;BME280;6454;43.304;24.344;2023-03-03T07:31:57;100558.78;;;6.39;93.38
12781;BME280;6454;43.304;24.344;2023-03-03T07:34:28;100553.47;;;6.44;92.33
12781;BME280;6454;43.304;24.344;2023-03-03T07:36:57;100550.63;;;6.34;93.07
12781;BME280;6454;43.304;24.344;2023-03-03T07:39:30;100553.88;;;6.36;93.86
12781;BME280;6454;43.304;24.344;2023-03-03T07:42:08;100563.19;;;6.45;93.57
12781;BME280;6454;43.304;24.344;2023-03-03T07:44:40;100553.66;;;6.38;93.66
12781;BME280;6454;43.304;24.344;2023-03-03T07:47:19;100487.19;;;6.05;92.80
12781;BME280;6454;43.304;24.344;2023-03-03T07:49:47;100551.31;;;6.46;92.13
12781;BME280;6454;43.304;24.344;2023-03-03T07:52:23;100556.72;;;6.46;92.27
12781;BME280;6454;43.304;24.344;2023-03-03T07:54:51;100549.44;;;6.47;91.93
12781;BME280;6454;43.304;24.344;2023-03-03T07:57:22;100550.28;;;6.47;92.55
12781;BME280;6454;43.304;24.344;2023-03-03T07:59:52;100478.03;;;6.06;93.14
12781;BME280;6454;43.304;24.344;2023-03-03T08:02:38;100546.13;;;6.62;92.98
12781;BME280;6454;43.304;24.344;2023-03-03T08:05:30;100480.56;;;6.34;92.04
12781;BME280;6454;43.304;24.344;2023-03-03T08:08:09;100543.00;;;6.70;91.59
12781;BME280;6454;43.304;24.344;2023-03-03T08:10:43;100535.47;;;6.72;92.24
12781;BME280;6454;43.304;24.344;2023-03-03T08:13:16;100532.56;;;6.78;92.03
12781;BME280;6454;43.304;24.344;2023-03-03T08:15:46;100532.91;;;6.82;91.04
12781;BME280;6454;43.304;24.344;2023-03-03T08:18:24;100523.09;;;6.76;90.78
12781;BME280;6454;43.304;24.344;2023-03-03T08:20:55;100521.19;;;6.71;91.19
12781;BME280;6454;43.304;24.344;2023-03-03T08:23:23;100519.69;;;6.80;91.63
12781;BME280;6454;43.304;24.344;2023-03-03T08:25:50;100528.88;;;6.84;91.46
12781;BME280;6454;43.304;24.344;2023-03-03T08:28:18;100419.53;;;6.23;90.96
12781;BME280;6454;43.304;24.344;2023-03-03T08:30:47;100517.94;;;6.96;91.20
12781;BME280;6454;43.304;24.344;2023-03-03T08:33:15;100521.22;;;6.98;90.78
12781;BME280;6454;43.304;24.344;2023-03-03T08:35:43;100526.09;;;7.01;90.75
12781;BME280;6454;43.304;24.344;2023-03-03T08:38:11;100528.91;;;7.11;89.25
12781;BME280;6454;43.304;24.344;2023-03-03T08:40:38;100518.41;;;7.14;88.09
12781;BME280;6454;43.304;24.344;2023-03-03T08:43:05;100511.66;;;7.12;88.70
12781;BME280;6454;43.304;24.344;2023-03-03T08:45:32;100514.53;;;7.05;89.39
12781;BME280;6454;43.304;24.344;2023-03-03T08:48:01;100397.06;;;6.34;89.04
12781;BME280;6454;43.304;24.344;2023-03-03T08:50:29;100511.69;;;7.17;89.33
12781;BME280;6454;43.304;24.344;2023-03-03T08:52:56;100513.56;;;7.17;90.05
12781;BME280;6454;43.304;24.344;2023-03-03T08:55:23;100468.69;;;6.79;90.32
12781;BME280;6454;43.304;24.344;2023-03-03T08:57:50;100512.88;;;6.99;91.34
12781;BME280;6454;43.304;24.344;2023-03-03T09:00:19;100508.13;;;7.11;90.42
12781;BME280;6454;43.304;24.344;2023-03-03T09:02:46;100516.28;;;7.17;89.69
12781;BME280;6454;43.304;24.344;2023-03-03T09:05:16;100511.66;;;7.12;89.47
12781;BME280;6454;43.304;24.344;2023-03-03T09:07:44;100512.16;;;7.09;88.96
12781;BME280;6454;43.304;24.344;2023-03-03T09:10:13;100512.25;;;7.19;87.96
12781;BME280;6454;43.304;24.344;2023-03-03T09:12:42;100481.28;;;6.95;87.63
12781;BME280;6454;43.304;24.344;2023-03-03T09:15:22;100507.59;;;7.09;88.41
12781;BME280;6454;43.304;24.344;2023-03-03T09:17:49;100505.53;;;7.22;88.53
12781;BME280;6454;43.304;24.344;2023-03-03T09:20:26;100516.09;;;7.28;87.77
12781;BME280;6454;43.304;24.344;2023-03-03T09:22:53;100511.84;;;7.32;87.08
12781;BME280;6454;43.304;24.344;2023-03-03T09:25:23;100509.25;;;7.42;86.16
12781;BME280;6454;43.304;24.344;2023-03-03T09:27:53;100507.09;;;7.44;86.22
12781;BME280;6454;43.304;24.344;2023-03-03T09:30:33;100480.47;;;7.26;85.94
12781;BME280;6454;43.304;24.344;2023-03-03T09:33:15;100499.84;;;7.50;86.07
12781;BME280;6454;43.304;24.344;2023-03-03T09:35:44;100409.06;;;7.02;86.34
12781;BME280;6454;43.304;24.344;2023-03-03T09:38:24;100495.06;;;7.57;86.19
12781;BME280;6454;43.304;24.344;2023-03-03T09:41:08;100498.56;;;7.57;85.27
12781;BME280;6454;43.304;24.344;2023-03-03T09:43:47;100500.63;;;7.45;86.10
12781;BME280;6454;43.304;24.344;2023-03-03T09:46:22;100499.31;;;7.48;86.66
12781;BME280;6454;43.304;24.344;2023-03-03T09:49:01;100500.41;;;7.52;86.07
12781;BME280;6454;43.304;24.344;2023-03-03T09:51:44;100388.16;;;6.87;86.07
12781;BME280;6454;43.304;24.344;2023-03-03T09:54:19;100500.69;;;7.50;86.15
12781;BME280;6454;43.304;24.344;2023-03-03T09:56:57;100492.53;;;7.45;85.85
12781;BME280;6454;43.304;24.344;2023-03-03T09:59:38;100493.63;;;7.49;86.16
12781;BME280;6454;43.304;24.344;2023-03-03T10:02:22;100493.91;;;7.53;87.34
12781;BME280;6454;43.304;24.344;2023-03-03T10:07:49;100492.56;;;7.50;86.60
12781;BME280;6454;43.304;24.344;2023-03-03T10:10:31;100488.56;;;7.58;86.24
12781;BME280;6454;43.304;24.344;2023-03-03T10:13:21;100483.16;;;7.58;86.03
12781;BME280;6454;43.304;24.344;2023-03-03T10:16:04;100483.16;;;7.58;86.18
12781;BME280;6454;43.304;24.344;2023-03-03T10:18:38;100488.28;;;7.54;85.02
12781;BME280;6454;43.304;24.344;2023-03-03T10:21:09;100489.63;;;7.52;85.35
12781;BME280;6454;43.304;24.344;2023-03-03T10:23:52;100484.69;;;7.44;85.77
12781;BME280;6454;43.304;24.344;2023-03-03T10:26:37;100451.66;;;7.32;86.70
12781;BME280;6454;43.304;24.344;2023-03-03T10:29:20;100475.81;;;7.48;85.83
12781;BME280;6454;43.304;24.344;2023-03-03T10:32:17;100476.59;;;7.44;85.35
12781;BME280;6454;43.304;24.344;2023-03-03T10:35:02;100375.75;;;6.86;85.88
12781;BME280;6454;43.304;24.344;2023-03-03T10:37:37;100470.72;;;7.52;85.01
12781;BME280;6454;43.304;24.344;2023-03-03T10:40:16;100467.50;;;7.55;84.89
12781;BME280;6454;43.304;24.344;2023-03-03T10:43:11;100462.34;;;7.53;85.23
12781;BME280;6454;43.304;24.344;2023-03-03T10:46:15;100456.16;;;7.58;85.56
12781;BME280;6454;43.304;24.344;2023-03-03T10:48:54;100453.41;;;7.48;85.24
12781;BME280;6454;43.304;24.344;2023-03-03T10:51:32;100456.63;;;7.45;85.76
12781;BME280;6454;43.304;24.344;2023-03-03T10:54:14;100443.72;;;7.52;84.79
12781;BME280;6454;43.304;24.344;2023-03-03T10:56:48;100440.75;;;7.53;84.74
12781;BME280;6454;43.304;24.344;2023-03-03T10:59:36;100438.59;;;7.50;85.09
12781;BME280;6454;43.304;24.344;2023-03-03T11:02:14;100435.13;;;7.55;85.93
12781;BME280;6454;43.304;24.344;2023-03-03T11:05:01;100437.53;;;7.56;87.03
12781;BME280;6454;43.304;24.344;2023-03-03T11:07:34;100339.88;;;6.86;86.14
12781;BME280;6454;43.304;24.344;2023-03-03T11:10:17;100432.72;;;7.63;86.77
12781;BME280;6454;43.304;24.344;2023-03-03T11:12:54;100441.13;;;7.67;86.20
12781;BME280;6454;43.304;24.344;2023-03-03T11:15:38;100433.53;;;7.64;85.58
12781;BME280;6454;43.304;24.344;2023-03-03T11:18:14;100435.75;;;7.72;85.92
12781;BME280;6454;43.304;24.344;2023-03-03T11:20:51;100421.69;;;7.65;85.40
12781;BME280;6454;43.304;24.344;2023-03-03T11:23:47;100423.63;;;7.74;84.60
12781;BME280;6454;43.304;24.344;2023-03-03T11:26:26;100432.28;;;7.76;84.26
12781;BME280;6454;43.304;24.344;2023-03-03T11:29:11;100424.97;;;7.72;85.96
12781;BME280;6454;43.304;24.344;2023-03-03T11:31:45;100421.72;;;7.70;86.02
12781;BME280;6454;43.304;24.344;2023-03-03T11:34:24;100425.72;;;7.62;85.87
12781;BME280;6454;43.304;24.344;2023-03-03T11:36:57;100420.38;;;7.72;85.44
12781;BME280;6454;43.304;24.344;2023-03-03T11:39:27;100414.44;;;7.75;85.11
12781;BME280;6454;43.304;24.344;2023-03-03T11:42:03;100376.63;;;7.29;85.88
12781;BME280;6454;43.304;24.344;2023-03-03T11:44:37;100411.13;;;7.63;85.42
12781;BME280;6454;43.304;24.344;2023-03-03T11:47:15;100414.94;;;7.67;85.57
12781;BME280;6454;43.304;24.344;2023-03-03T11:49:47;100411.31;;;7.52;85.90
12781;BME280;6454;43.304;24.344;2023-03-03T11:52:29;100411.06;;;7.53;86.61
12781;BME280;6454;43.304;24.344;2023-03-03T11:55:01;100407.25;;;7.49;86.56
12781;BME280;6454;43.304;24.344;2023-03-03T11:57:36;100305.44;;;6.93;86.07
12781;BME280;6454;43.304;24.344;2023-03-03T12:00:18;100371.31;;;7.44;86.41
12781;BME280;6454;43.304;24.344;2023-03-03T12:03:15;100401.63;;;7.56;86.49
12781;BME280;6454;43.304;24.344;2023-03-03T12:05:52;100415.47;;;7.64;86.21
12781;BME280;6454;43.304;24.344;2023-03-03T12:08:31;100396.53;;;7.59;86.65
12781;BME280;6454;43.304;24.344;2023-03-03T12:11:07;100403.50;;;7.55;86.93
12781;BME280;6454;43.304;24.344;2023-03-03T12:13:49;100398.09;;;7.55;86.96
12781;BME280;6454;43.304;24.344;2023-03-03T12:16:26;100399.75;;;7.56;86.70
12781;BME280;6454;43.304;24.344;2023-03-03T12:19:09;100396.78;;;7.58;86.62
12781;BME280;6454;43.304;24.344;2023-03-03T12:21:49;100396.03;;;7.62;86.40
12781;BME280;6454;43.304;24.344;2023-03-03T12:24:33;100332.88;;;7.22;86.70
12781;BME280;6454;43.304;24.344;2023-03-03T12:27:12;100391.44;;;7.68;86.12
12781;BME280;6454;43.304;24.344;2023-03-03T12:29:41;100399.00;;;7.66;87.23
12781;BME280;6454;43.304;24.344;2023-03-03T12:32:22;100392.00;;;7.70;88.46
12781;BME280;6454;43.304;24.344;2023-03-03T12:34:59;100397.72;;;7.78;87.53
12781;BME280;6454;43.304;24.344;2023-03-03T12:37:41;100394.47;;;7.76;87.05
12781;BME280;6454;43.304;24.344;2023-03-03T12:40:16;100398.53;;;7.79;86.67
12781;BME280;6454;43.304;24.344;2023-03-03T12:43:04;100402.03;;;7.74;86.77
12781;BME280;6454;43.304;24.344;2023-03-03T12:45:45;100399.88;;;7.76;87.65
12781;BME280;6454;43.304;24.344;2023-03-03T12:48:22;100402.81;;;7.70;87.98
12781;BME280;6454;43.304;24.344;2023-03-03T12:51:00;100394.47;;;7.76;87.64
12781;BME280;6454;43.304;24.344;2023-03-03T12:53:47;100394.97;;;7.68;87.06
12781;BME280;6454;43.304;24.344;2023-03-03T12:56:22;100393.91;;;7.69;87.82
12781;BME280;6454;43.304;24.344;2023-03-03T12:58:55;100394.97;;;7.68;88.25
12781;BME280;6454;43.304;24.344;2023-03-03T13:01:36;100396.09;;;7.77;88.53
12781;BME280;6454;43.304;24.344;2023-03-03T13:04:11;100396.09;;;7.77;88.36
12781;BME280;6454;43.304;24.344;2023-03-03T13:06:45;100401.47;;;7.72;88.35
12781;BME280;6454;43.304;24.344;2023-03-03T13:09:28;100392.28;;;7.73;88.11
12781;BME280;6454;43.304;24.344;2023-03-03T13:12:18;100389.09;;;7.82;89.13
12781;BME280;6454;43.304;24.344;2023-03-03T13:14:50;100390.13;;;7.75;88.82
12781;BME280;6454;43.304;24.344;2023-03-03T13:17:22;100389.06;;;7.76;89.29
12781;BME280;6454;43.304;24.344;2023-03-03T13:19:55;100393.94;;;7.79;88.64
12781;BME280;6454;43.304;24.344;2023-03-03T13:22:37;100390.75;;;7.88;86.91
12781;BME280;6454;43.304;24.344;2023-03-03T13:25:18;100304.63;;;7.39;86.58
12781;BME280;6454;43.304;24.344;2023-03-03T13:27:50;100386.75;;;7.95;87.35